Time;durP1;ratioP1;P1;durP2;ratioP2;P2;SDS_P1;SDS_P2;PMS_P1;PMS_P2;Temp;Humidity;BMP_temperature;BMP_pressure;BME280_temperature;BME280_humidity;BME280_pressure;Samples;Min_cycle;Max_cycle;Signal;HPM_P1;HPM_P2
2023/04/14 00:00:40;;;;;;;8.13;4.53;;;5.40;99.90;;;;;;4988147;28;20210;-68
2023/04/14 00:03:07;;;;;;;7.77;4.03;;;5.50;99.90;;;;;;4976911;28;20217;-68
2023/04/14 00:05:34;;;;;;;8.10;4.40;;;5.40;99.90;;;;;;5011396;28;20532;-68
2023/04/14 00:08:01;;;;;;;6.10;4.33;;;5.50;99.90;;;;;;5028276;28;20200;-68
2023/04/14 00:10:28;;;;;;;6.03;4.20;;;5.50;99.90;;;;;;5027654;28;20205;-67
2023/04/14 00:12:55;;;;;;;8.37;4.70;;;5.60;99.90;;;;;;5014646;28;20208;-67
2023/04/14 00:15:23;;;;;;;5.63;4.23;;;5.60;99.90;;;;;;5006198;28;20256;-68
2023/04/14 00:17:50;;;;;;;9.13;4.33;;;5.50;99.90;;;;;;4995885;28;20217;-68
2023/04/14 00:20:17;;;;;;;7.93;4.50;;;5.50;99.90;;;;;;5015603;28;20212;-68
2023/04/14 00:22:44;;;;;;;14.03;5.77;;;5.50;99.90;;;;;;5024527;28;20213;-67
2023/04/14 00:25:11;;;;;;;6.63;5.07;;;5.70;99.90;;;;;;5029324;28;20199;-68
2023/04/14 00:27:37;;;;;;;7.87;4.83;;;5.60;99.90;;;;;;5020562;28;20201;-68
2023/04/14 00:30:05;;;;;;;8.20;5.07;;;5.60;99.90;;;;;;5007895;28;20200;-68
2023/04/14 00:32:33;;;;;;;8.23;5.00;;;5.60;99.90;;;;;;4995083;28;20228;-68
2023/04/14 00:35:02;;;;;;;11.77;5.40;;;5.30;99.90;;;;;;5021466;28;20741;-68
2023/04/14 00:37:28;;;;;;;7.80;4.77;;;5.40;99.90;;;;;;5011461;28;20202;-68
2023/04/14 00:39:56;;;;;;;6.13;5.17;;;5.30;99.90;;;;;;5025682;28;20323;-68
2023/04/14 00:42:22;;;;;;;6.40;5.00;;;5.40;99.90;;;;;;5022319;28;20622;-68
2023/04/14 00:44:49;;;;;;;10.00;5.47;;;5.30;99.90;;;;;;5012682;28;20231;-68
2023/04/14 00:47:16;;;;;;;8.70;6.20;;;5.40;99.90;;;;;;4981599;28;20205;-68
2023/04/14 00:49:44;;;;;;;8.43;5.10;;;5.40;99.90;;;;;;5024781;28;20405;-67
2023/04/14 00:52:11;;;;;;;10.40;5.63;;;5.40;99.90;;;;;;5013182;28;20201;-67
2023/04/14 00:54:38;;;;;;;9.13;5.87;;;5.40;99.90;;;;;;5019439;28;20596;-68
2023/04/14 00:57:06;;;;;;;9.63;5.23;;;5.40;99.90;;;;;;5024025;28;20197;-68
2023/04/14 00:59:33;;;;;;;6.93;4.93;;;5.40;99.90;;;;;;5023796;28;21104;-68
2023/04/14 01:02:00;;;;;;;8.93;4.70;;;5.40;99.90;;;;;;5006848;28;20707;-68
2023/04/14 01:04:28;;;;;;;7.60;5.30;;;5.30;99.90;;;;;;4996221;28;20754;-67
2023/04/14 01:06:56;;;;;;;9.10;5.10;;;5.40;99.90;;;;;;5006790;28;20226;-68
2023/04/14 01:09:23;;;;;;;9.00;5.37;;;5.40;99.90;;;;;;5027297;28;20674;-67
2023/04/14 01:11:57;;;;;;;8.83;4.87;;;5.40;99.90;;;;;;5019624;28;20394;-68
2023/04/14 01:14:31;;;;;;;6.80;4.63;;;5.40;99.90;;;;;;5025093;28;20470;-68
2023/04/14 01:17:06;;;;;;;6.67;5.30;;;5.40;99.90;;;;;;5014876;28;20425;-68
2023/04/14 01:19:46;;;;;;;9.00;5.10;;;5.30;99.90;;;;;;4978468;28;20253;-68
2023/04/14 01:22:18;;;;;;;6.83;5.50;;;5.20;99.90;;;;;;5010296;28;20200;-68
2023/04/14 01:25:08;;;;;;;8.73;5.00;;;5.00;99.90;;;;;;5019474;28;20288;-68
2023/04/14 01:27:43;;;;;;;9.20;4.90;;;4.90;99.90;;;;;;5020607;28;20207;-67
2023/04/14 01:30:33;;;;;;;7.27;5.40;;;4.80;99.90;;;;;;5021364;28;20196;-67
2023/04/14 01:33:05;;;;;;;7.90;5.20;;;5.00;99.90;;;;;;5006688;28;20652;-68
2023/04/14 01:35:36;;;;;;;8.60;4.97;;;4.90;99.90;;;;;;4986626;28;20229;-67
2023/04/14 01:38:08;;;;;;;7.13;5.03;;;4.90;99.90;;;;;;5024097;28;20647;-68
2023/04/14 01:40:37;;;;;;;7.57;4.90;;;4.90;99.90;;;;;;5022370;28;20202;-67
2023/04/14 01:43:10;;;;;;;5.37;4.73;;;4.80;99.90;;;;;;5019286;28;20196;-67
2023/04/14 01:45:41;;;;;;;7.17;5.17;;;4.80;99.90;;;;;;5017705;28;20456;-67
2023/04/14 01:48:11;;;;;;;5.57;4.97;;;4.80;99.90;;;;;;5024210;28;20208;-67
2023/04/14 01:50:41;;;;;;;7.30;5.10;;;4.80;99.90;;;;;;4979166;28;20205;-68
2023/04/14 01:53:10;;;;;;;6.40;5.13;;;4.70;99.90;;;;;;5003714;28;20199;-68
2023/04/14 01:55:38;;;;;;;6.40;4.63;;;4.60;99.90;;;;;;5020186;28;20226;-67
2023/04/14 01:58:06;;;;;;;8.20;4.77;;;4.50;99.90;;;;;;5022229;28;20205;-67
2023/04/14 02:00:36;;;;;;;7.23;5.23;;;4.50;99.90;;;;;;5015038;28;20578;-68
2023/04/14 02:03:05;;;;;;;7.80;5.10;;;4.50;99.90;;;;;;5016847;28;20217;-67
2023/04/14 02:05:36;;;;;;;7.43;5.47;;;4.50;99.90;;;;;;4992496;28;20228;-67
2023/04/14 02:08:05;;;;;;;7.60;5.23;;;4.50;99.90;;;;;;5006573;28;20359;-67
2023/04/14 02:10:34;;;;;;;11.27;5.80;;;4.80;99.90;;;;;;5017725;28;20296;-67
2023/04/14 02:13:03;;;;;;;9.17;6.20;;;4.80;99.90;;;;;;5020073;28;20797;-68
2023/04/14 02:15:33;;;;;;;7.33;5.63;;;4.70;99.90;;;;;;5017261;28;20229;-68
2023/04/14 02:18:02;;;;;;;6.70;5.53;;;4.60;99.90;;;;;;5013932;28;20902;-67
2023/04/14 02:20:29;;;;;;;7.00;5.20;;;4.60;99.90;;;;;;5010999;28;20577;-67
2023/04/14 02:22:58;;;;;;;7.17;5.37;;;4.60;99.90;;;;;;4976549;28;20235;-67
2023/04/14 02:25:31;;;;;;;5.80;5.17;;;4.60;99.90;;;;;;5014902;28;20477;-67
2023/04/14 02:28:02;;;;;;;11.53;5.80;;;4.50;99.90;;;;;;5020775;28;22685;-67
2023/04/14 02:30:31;;;;;;;6.07;4.87;;;4.50;99.90;;;;;;5019197;28;20212;-67
2023/04/14 02:33:03;;;;;;;8.03;5.50;;;4.40;99.90;;;;;;5016161;28;20556;-68
2023/04/14 02:35:36;;;;;;;12.10;5.90;;;4.40;99.90;;;;;;5013589;28;20749;-67
2023/04/14 02:38:07;;;;;;;8.50;5.17;;;4.40;99.90;;;;;;4990925;28;20286;-68
2023/04/14 02:40:38;;;;;;;7.17;5.60;;;4.30;99.90;;;;;;5011443;28;20204;-67
2023/04/14 02:43:11;;;;;;;8.27;5.17;;;4.30;99.90;;;;;;5020523;28;20787;-67
2023/04/14 02:45:42;;;;;;;7.73;5.57;;;4.20;99.90;;;;;;5005942;28;20503;-67
2023/04/14 02:48:12;;;;;;;8.63;5.90;;;4.30;99.90;;;;;;5025983;28;20200;-67
2023/04/14 02:50:42;;;;;;;8.77;6.43;;;4.20;99.90;;;;;;5014942;28;20202;-67
2023/04/14 02:53:11;;;;;;;7.10;5.30;;;4.10;99.90;;;;;;5006874;28;20210;-67
2023/04/14 02:55:39;;;;;;;6.67;5.77;;;4.10;99.90;;;;;;4982335;28;20593;-67
2023/04/14 02:58:07;;;;;;;7.47;5.47;;;4.20;99.90;;;;;;5020821;28;20576;-67
2023/04/14 03:00:34;;;;;;;7.53;5.33;;;4.20;99.90;;;;;;5017037;28;20224;-67
2023/04/14 03:03:03;;;;;;;7.30;5.33;;;4.10;99.90;;;;;;5023063;28;20204;-67
2023/04/14 03:05:31;;;;;;;7.13;5.00;;;4.00;99.90;;;;;;5018394;28;20598;-67
2023/04/14 03:08:00;;;;;;;6.57;5.53;;;4.00;99.90;;;;;;5010124;28;20209;-68
2023/04/14 03:10:28;;;;;;;6.50;5.20;;;3.90;99.90;;;;;;4989132;28;20218;-67
2023/04/14 03:12:58;;;;;;;7.73;5.33;;;3.90;99.90;;;;;;5013903;28;20695;-67
2023/04/14 03:15:26;;;;;;;6.87;5.40;;;4.00;99.90;;;;;;5019752;28;20612;-67
2023/04/14 03:17:56;;;;;;;8.80;5.43;;;4.00;99.90;;;;;;5018606;28;20417;-67
2023/04/14 03:20:23;;;;;;;7.23;4.80;;;4.10;99.90;;;;;;5024319;28;20197;-67
2023/04/14 03:22:56;;;;;;;8.47;5.17;;;3.90;99.90;;;;;;5008148;28;20421;-67
2023/04/14 03:25:25;;;;;;;9.37;5.23;;;3.90;99.90;;;;;;5013198;28;20298;-67
2023/04/14 03:27:56;;;;;;;7.10;5.60;;;3.90;99.90;;;;;;4992105;28;20467;-67
2023/04/14 03:30:25;;;;;;;8.03;5.53;;;4.00;99.90;;;;;;5018964;28;20198;-67
2023/04/14 03:32:53;;;;;;;9.63;5.17;;;3.90;99.90;;;;;;5011953;28;20457;-67
2023/04/14 03:35:21;;;;;;;7.30;5.53;;;3.80;99.90;;;;;;5019025;28;20225;-67
2023/04/14 03:37:50;;;;;;;6.00;4.87;;;3.80;99.90;;;;;;5007996;28;20206;-67
2023/04/14 03:40:18;;;;;;;6.67;5.03;;;3.70;99.90;;;;;;5008869;28;20201;-67
2023/04/14 03:42:46;;;;;;;6.13;5.37;;;3.70;99.90;;;;;;4979252;28;20384;-67
2023/04/14 03:45:15;;;;;;;5.27;4.40;;;3.80;99.90;;;;;;5018780;28;20193;-67
2023/04/14 03:47:42;;;;;;;6.00;5.00;;;3.70;99.90;;;;;;5017479;28;20212;-67
2023/04/14 03:50:11;;;;;;;5.37;4.53;;;3.70;99.90;;;;;;5015391;28;20202;-67
2023/04/14 03:52:41;;;;;;;5.97;4.63;;;3.70;99.90;;;;;;5016564;28;20209;-67
2023/04/14 03:55:11;;;;;;;5.63;5.03;;;3.80;99.90;;;;;;5003417;28;20584;-67
2023/04/14 03:57:40;;;;;;;6.00;4.97;;;3.90;99.90;;;;;;4969958;28;20237;-67
2023/04/14 04:00:09;;;;;;;8.00;5.60;;;3.80;99.90;;;;;;5011612;28;20236;-67
2023/04/14 04:02:38;;;;;;;6.67;4.83;;;3.70;99.90;;;;;;5010116;28;20245;-67
2023/04/14 04:05:07;;;;;;;8.20;5.70;;;3.80;99.90;;;;;;5016094;28;20327;-67
2023/04/14 04:07:35;;;;;;;5.87;5.07;;;3.80;99.90;;;;;;5018834;28;20231;-67
2023/04/14 04:10:03;;;;;;;10.23;5.57;;;3.80;99.90;;;;;;5011471;28;20582;-67
2023/04/14 04:12:31;;;;;;;11.93;5.57;;;3.80;99.90;;;;;;4995033;28;20202;-67
2023/04/14 04:14:58;;;;;;;8.37;5.33;;;3.80;99.90;;;;;;5006883;28;20229;-67
2023/04/14 04:17:29;;;;;;;8.07;5.30;;;3.80;99.90;;;;;;5011167;28;20204;-67
2023/04/14 04:20:00;;;;;;;5.70;4.80;;;3.80;99.90;;;;;;5009978;28;20689;-67
2023/04/14 04:22:30;;;;;;;7.00;4.90;;;3.70;99.90;;;;;;5005272;28;20353;-67
2023/04/14 04:24:58;;;;;;;6.47;5.07;;;3.70;99.90;;;;;;5005119;28;20335;-67
2023/04/14 04:27:25;;;;;;;5.63;4.67;;;3.70;99.90;;;;;;4985110;28;20696;-67
2023/04/14 04:29:52;;;;;;;5.77;4.27;;;3.80;99.90;;;;;;4994621;28;20220;-67
2023/04/14 04:32:19;;;;;;;8.60;5.63;;;3.70;99.90;;;;;;5015830;28;20204;-67
2023/04/14 04:34:47;;;;;;;18.53;7.70;;;3.80;99.90;;;;;;5012732;28;20371;-67
2023/04/14 04:37:17;;;;;;;32.63;10.17;;;3.60;99.90;;;;;;4992144;28;20237;-67
2023/04/14 04:39:43;;;;;;;22.23;9.47;;;3.60;99.90;;;;;;5006533;28;20249;-67
2023/04/14 04:42:10;;;;;;;46.43;15.20;;;3.60;99.90;;;;;;4988320;28;20378;-67
2023/04/14 04:44:37;;;;;;;40.03;15.77;;;3.50;99.90;;;;;;4986692;28;20221;-67
2023/04/14 04:47:05;;;;;;;30.10;11.57;;;3.60;99.90;;;;;;5016006;28;20618;-67
2023/04/14 04:49:32;;;;;;;24.63;10.23;;;3.60;99.90;;;;;;5014872;28;20222;-67
2023/04/14 04:51:59;;;;;;;16.83;6.90;;;3.60;99.90;;;;;;5013269;28;20513;-67
2023/04/14 04:54:27;;;;;;;23.23;8.73;;;3.50;99.90;;;;;;5022814;28;20202;-67
2023/04/14 04:56:56;;;;;;;34.10;13.97;;;3.60;99.90;;;;;;5001587;28;20230;-67
2023/04/14 04:59:23;;;;;;;19.87;8.63;;;3.80;99.90;;;;;;4983077;28;20307;-67
2023/04/14 05:01:50;;;;;;;12.50;6.47;;;3.90;99.90;;;;;;5017941;28;20221;-67
2023/04/14 05:04:17;;;;;;;10.47;5.77;;;4.10;99.90;;;;;;5019854;28;20814;-67
2023/04/14 05:06:43;;;;;;;10.57;6.30;;;4.30;99.90;;;;;;5012706;28;20256;-67
2023/04/14 05:09:10;;;;;;;7.43;5.00;;;4.40;99.90;;;;;;5001137;28;20675;-67
2023/04/14 05:11:38;;;;;;;7.83;5.73;;;4.30;99.90;;;;;;5010985;28;20217;-67
2023/04/14 05:14:05;;;;;;;10.93;5.57;;;4.40;99.90;;;;;;4964115;28;21337;-67
2023/04/14 05:16:32;;;;;;;7.57;5.33;;;4.40;99.90;;;;;;5019529;28;20241;-67
2023/04/14 05:18:59;;;;;;;14.57;6.73;;;4.40;99.90;;;;;;4998989;28;21116;-67
2023/04/14 05:21:25;;;;;;;40.87;14.03;;;4.40;99.90;;;;;;5012583;28;20197;-67
2023/04/14 05:23:52;;;;;;;76.93;22.00;;;4.30;99.90;;;;;;4994931;28;20221;-67
2023/04/14 05:26:19;;;;;;;94.53;28.83;;;4.30;99.90;;;;;;5022884;28;20217;-67
2023/04/14 05:28:47;;;;;;;65.70;22.17;;;4.40;99.90;;;;;;4994681;28;20221;-68
2023/04/14 05:31:15;;;;;;;30.33;11.73;;;4.30;99.90;;;;;;5018215;28;20263;-67
2023/04/14 05:33:41;;;;;;;17.20;7.93;;;4.20;99.90;;;;;;5021728;28;20679;-67
2023/04/14 05:36:08;;;;;;;10.70;6.30;;;4.20;99.90;;;;;;5022170;28;20318;-67
2023/04/14 05:38:38;;;;;;;10.83;6.33;;;4.20;99.90;;;;;;5017035;28;20198;-67
2023/04/14 05:41:05;;;;;;;6.63;4.80;;;4.20;99.90;;;;;;5019561;28;20334;-67
2023/04/14 05:43:32;;;;;;;7.33;5.00;;;4.20;99.90;;;;;;5015328;28;20208;-67
2023/04/14 05:46:01;;;;;;;10.10;5.50;;;4.30;99.90;;;;;;4982346;28;20202;-67
2023/04/14 05:48:29;;;;;;;7.83;5.47;;;4.30;99.90;;;;;;5021226;28;20220;-67
2023/04/14 05:50:56;;;;;;;9.57;5.80;;;4.30;99.90;;;;;;5023729;28;20202;-67
2023/04/14 05:53:23;;;;;;;8.07;5.93;;;4.40;99.90;;;;;;5007501;28;20448;-67
2023/04/14 05:55:52;;;;;;;8.33;5.57;;;4.50;99.90;;;;;;5025848;28;20225;-67
2023/04/14 05:58:18;;;;;;;11.50;6.57;;;4.40;99.90;;;;;;5005590;28;20207;-67
2023/04/14 06:00:45;;;;;;;12.53;6.10;;;4.50;99.90;;;;;;4986910;28;20701;-67
2023/04/14 06:03:13;;;;;;;12.50;6.27;;;4.60;99.90;;;;;;5019479;28;20222;-67
2023/04/14 06:05:40;;;;;;;8.00;5.50;;;4.70;99.90;;;;;;5026563;28;20586;-67
2023/04/14 06:08:07;;;;;;;7.17;5.30;;;4.80;99.90;;;;;;4998654;28;20433;-67
2023/04/14 06:10:34;;;;;;;7.40;5.53;;;4.90;99.90;;;;;;5016139;28;20397;-67
2023/04/14 06:13:01;;;;;;;7.57;5.20;;;5.00;99.90;;;;;;5006901;28;20932;-67
2023/04/14 06:15:28;;;;;;;7.50;5.37;;;5.00;99.90;;;;;;4975032;28;20374;-67
2023/04/14 06:17:55;;;;;;;8.03;5.10;;;5.10;99.90;;;;;;5017049;28;20723;-67
2023/04/14 06:20:24;;;;;;;8.20;5.03;;;5.20;99.90;;;;;;5016742;28;20459;-67
2023/04/14 06:22:51;;;;;;;6.50;4.90;;;5.20;99.90;;;;;;5012929;28;20280;-67
2023/04/14 06:25:18;;;;;;;7.40;4.73;;;5.30;99.90;;;;;;5004256;28;20555;-67
2023/04/14 06:27:44;;;;;;;7.97;4.87;;;5.30;99.90;;;;;;5001689;28;20248;-67
2023/04/14 06:30:14;;;;;;;10.43;4.83;;;5.40;99.90;;;;;;4969361;28;20200;-68
2023/04/14 06:32:40;;;;;;;7.07;4.37;;;5.50;99.90;;;;;;5018101;28;20212;-67
2023/04/14 06:35:08;;;;;;;5.57;4.47;;;5.50;99.90;;;;;;5023438;28;20209;-67
2023/04/14 06:37:36;;;;;;;5.23;4.33;;;5.60;99.90;;;;;;5022812;28;20941;-67
2023/04/14 06:40:03;;;;;;;7.33;4.90;;;5.70;99.90;;;;;;5006925;28;20205;-67
2023/04/14 06:42:30;;;;;;;6.43;4.80;;;5.80;99.90;;;;;;5020649;28;20728;-67
2023/04/14 06:44:56;;;;;;;8.80;4.57;;;5.80;99.90;;;;;;5000679;28;20233;-67
2023/04/14 06:47:24;;;;;;;7.73;4.60;;;5.90;99.90;;;;;;4988764;28;20496;-67
2023/04/14 06:49:51;;;;;;;6.97;5.00;;;6.00;99.90;;;;;;5016020;28;20581;-67
2023/04/14 06:52:17;;;;;;;8.60;5.10;;;6.10;99.90;;;;;;5015340;28;20441;-67
2023/04/14 06:54:46;;;;;;;8.17;5.23;;;6.20;99.90;;;;;;5011346;28;20599;-67
2023/04/14 06:57:12;;;;;;;9.03;5.07;;;6.30;99.90;;;;;;5018012;28;20457;-67
2023/04/14 06:59:39;;;;;;;8.93;4.70;;;6.30;99.90;;;;;;5006651;28;20225;-67
2023/04/14 07:02:06;;;;;;;6.87;4.80;;;6.40;99.90;;;;;;4980473;28;20208;-67
2023/04/14 07:04:36;;;;;;;12.37;4.77;;;6.40;99.90;;;;;;5017619;28;20224;-67
2023/04/14 07:07:03;;;;;;;6.47;4.73;;;6.50;99.90;;;;;;5021486;28;20237;-67
2023/04/14 07:09:29;;;;;;;8.87;5.17;;;6.60;99.90;;;;;;5011096;28;20496;-67
2023/04/14 07:11:58;;;;;;;8.47;5.50;;;6.70;99.90;;;;;;5018479;28;20602;-67
2023/04/14 07:14:25;;;;;;;7.77;4.80;;;6.70;99.90;;;;;;4999928;28;20673;-67
2023/04/14 07:16:52;;;;;;;8.30;5.40;;;6.80;99.90;;;;;;4989370;28;20228;-68
2023/04/14 07:19:19;;;;;;;9.60;5.30;;;6.90;99.90;;;;;;5021153;28;20306;-68
2023/04/14 07:21:46;;;;;;;8.67;5.40;;;7.00;99.90;;;;;;5014226;28;20939;-67
2023/04/14 07:24:13;;;;;;;11.27;4.80;;;7.20;99.90;;;;;;5016410;28;20213;-68
2023/04/14 07:26:41;;;;;;;5.13;4.33;;;7.30;99.90;;;;;;5004781;28;20221;-67
2023/04/14 07:29:09;;;;;;;7.50;4.30;;;7.30;99.90;;;;;;5020417;28;20671;-68
2023/04/14 07:31:37;;;;;;;12.73;5.33;;;7.50;99.90;;;;;;4973543;28;20198;-68
2023/04/14 07:34:04;;;;;;;8.07;4.50;;;7.60;99.90;;;;;;5024126;28;20201;-67
2023/04/14 07:36:32;;;;;;;11.97;5.50;;;7.70;99.90;;;;;;5013209;28;20401;-68
2023/04/14 07:38:59;;;;;;;8.20;4.53;;;7.70;99.90;;;;;;5021345;28;20584;-67
2023/04/14 07:41:26;;;;;;;8.70;5.23;;;7.80;99.90;;;;;;5012469;28;20584;-68
2023/04/14 07:43:54;;;;;;;8.77;4.60;;;7.90;99.90;;;;;;5014527;28;20304;-68
2023/04/14 07:46:22;;;;;;;10.53;4.83;;;8.00;99.90;;;;;;5007921;28;20213;-67
2023/04/14 07:48:49;;;;;;;12.70;4.53;;;8.10;99.90;;;;;;5001497;28;20206;-68
2023/04/14 07:51:16;;;;;;;7.93;4.30;;;8.20;99.90;;;;;;5005188;28;20205;-68
2023/04/14 07:53:43;;;;;;;6.17;3.27;;;8.20;99.30;;;;;;5021812;28;20310;-67
2023/04/14 07:56:10;;;;;;;6.67;3.50;;;8.30;97.20;;;;;;5024736;28;20204;-68
2023/04/14 07:58:37;;;;;;;4.77;2.83;;;8.30;95.40;;;;;;5012576;28;20225;-68
2023/04/14 08:01:05;;;;;;;6.03;2.70;;;8.40;93.80;;;;;;5013161;28;20201;-68
2023/04/14 08:03:35;;;;;;;9.53;3.27;;;8.50;90.50;;;;;;4989046;28;20224;-67
2023/04/14 08:06:01;;;;;;;4.67;3.00;;;8.60;91.10;;;;;;5013814;28;20232;-67
2023/04/14 08:08:28;;;;;;;6.05;2.75;;;8.70;90.60;;;;;;5022299;28;20193;-67
2023/04/14 08:10:55;;;;;;;9.13;2.50;;;8.80;88.70;;;;;;5026973;28;20515;-67
2023/04/14 08:13:22;;;;;;;4.30;2.37;;;8.90;89.60;;;;;;5014551;28;20213;-67
2023/04/14 08:15:49;;;;;;;2.60;1.67;;;9.00;85.60;;;;;;5014685;28;20745;-69
2023/04/14 08:18:16;;;;;;;4.67;2.23;;;9.10;82.40;;;;;;5010490;28;20225;-68
2023/04/14 08:20:44;;;;;;;9.85;1.88;;;9.20;80.30;;;;;;4984787;28;20925;-68
2023/04/14 08:23:11;;;;;;;5.07;1.80;;;9.20;64.70;;;;;;5028081;28;20200;-68
2023/04/14 08:25:38;;;;;;;5.40;1.60;;;9.30;59.60;;;;;;5016689;28;20837;-68
2023/04/14 08:28:05;;;;;;;1.58;1.48;;;9.30;54.90;;;;;;5006998;28;20579;-68
2023/04/14 08:30:32;;;;;;;4.95;2.03;;;9.40;51.30;;;;;;5017272;28;20272;-68
2023/04/14 08:32:59;;;;;;;5.15;2.03;;;9.40;48.30;;;;;;5014515;28;20202;-68
2023/04/14 08:35:25;;;;;;;5.97;1.52;;;9.50;41.30;;;;;;4996118;28;21168;-68
2023/04/14 08:37:54;;;;;;;4.53;1.98;;;9.60;42.00;;;;;;5001905;28;20749;-68
2023/04/14 08:40:22;;;;;;;2.97;1.52;;;9.70;44.40;;;;;;5028030;28;20204;-68
2023/04/14 08:42:49;;;;;;;2.13;1.25;;;9.80;41.10;;;;;;5022500;28;20675;-68
2023/04/14 08:45:18;;;;;;;4.05;1.90;;;9.80;34.20;;;;;;5017024;28;20198;-68
2023/04/14 08:47:47;;;;;;;3.25;1.60;;;9.90;29.60;;;;;;5008888;28;20901;-68
2023/04/14 08:50:18;;;;;;;2.63;1.80;;;10.00;20.30;;;;;;5023446;28;21254;-68
2023/04/14 08:52:46;;;;;;;4.78;1.50;;;10.00;16.70;;;;;;4998790;28;20279;-68
2023/04/14 08:55:15;;;;;;;3.97;1.40;;;10.10;17.20;;;;;;5021890;28;20202;-68
2023/04/14 08:57:45;;;;;;;4.68;1.60;;;10.20;16.60;;;;;;5020573;28;20233;-68
2023/04/14 09:00:14;;;;;;;4.47;1.63;;;10.20;9.10;;;;;;5014792;28;20194;-68
2023/04/14 09:02:41;;;;;;;5.22;1.45;;;10.30;4.70;;;;;;5016896;28;20526;-69
2023/04/14 09:05:08;;;;;;;1.48;1.30;;;10.30;1.00;;;;;;5016561;28;20205;-68
2023/04/14 09:07:36;;;;;;;4.50;1.80;;;10.30;1.00;;;;;;4970033;28;20227;-68
2023/04/14 09:10:03;;;;;;;2.67;1.42;;;10.50;9.90;;;;;;5005468;28;20209;-68
2023/04/14 09:12:33;;;;;;;3.80;1.42;;;10.50;1.00;;;;;;4999783;28;20223;-68
2023/04/14 09:15:01;;;;;;;4.15;1.80;;;10.60;1.00;;;;;;4991458;28;20209;-68
2023/04/14 09:17:30;;;;;;;4.03;1.60;;;10.60;1.00;;;;;;5004528;28;20249;-68
2023/04/14 09:19:57;;;;;;;4.78;1.83;;;10.70;1.00;;;;;;4994129;28;20655;-68
2023/04/14 09:22:24;;;;;;;2.42;1.33;;;10.70;1.00;;;;;;4973148;28;22545;-68
2023/04/14 09:24:51;;;;;;;9.30;2.55;;;10.70;1.00;;;;;;5004084;28;20237;-68
2023/04/14 09:27:18;;;;;;;5.85;1.85;;;10.80;1.00;;;;;;5010060;28;20225;-68
2023/04/14 09:29:48;;;;;;;10.90;2.30;;;10.80;1.00;;;;;;4988240;28;20533;-68
2023/04/14 09:32:15;;;;;;;3.45;2.05;;;10.90;1.00;;;;;;4993899;28;20229;-68
2023/04/14 09:34:51;;;;;;;4.70;1.98;;;10.90;1.00;;;;;;4994250;28;20624;-68
2023/04/14 09:37:18;;;;;;;1.65;1.50;;;11.00;1.00;;;;;;4958617;28;20686;-68
2023/04/14 09:39:49;;;;;;;2.15;1.63;;;11.00;1.00;;;;;;5002218;28;20311;-68
2023/04/14 09:42:17;;;;;;;8.27;1.75;;;11.00;1.00;;;;;;5007854;28;20202;-68
2023/04/14 09:44:55;;;;;;;4.25;1.80;;;11.10;1.00;;;;;;4993351;28;20214;-68
2023/04/14 09:47:23;;;;;;;6.07;1.60;;;11.10;1.00;;;;;;5003420;28;20871;-68
2023/04/14 09:49:58;;;;;;;2.13;1.50;;;11.20;1.00;;;;;;5008399;28;20426;-68
2023/04/14 09:52:37;;;;;;;4.40;1.77;;;11.20;1.00;;;;;;4961747;28;20236;-68
2023/04/14 09:55:07;;;;;;;8.27;1.92;;;11.30;1.00;;;;;;4997762;28;20276;-68
2023/04/14 09:57:34;;;;;;;5.05;1.70;;;11.30;1.00;;;;;;4988457;28;20229;-68
2023/04/14 10:00:04;;;;;;;4.72;1.40;;;11.40;1.00;;;;;;4995334;28;20206;-68
2023/04/14 10:02:46;;;;;;;4.35;1.63;;;11.50;1.00;;;;;;4985459;28;20722;-68
2023/04/14 10:05:13;;;;;;;4.85;1.40;;;11.50;1.00;;;;;;5001671;28;20221;-68
2023/04/14 10:07:40;;;;;;;6.25;1.70;;;11.50;1.00;;;;;;4979835;28;21517;-68
2023/04/14 10:10:12;;;;;;;4.13;1.50;;;11.60;1.00;;;;;;5027327;28;20205;-68
2023/04/14 10:12:41;;;;;;;3.00;1.67;;;11.70;1.00;;;;;;5019990;28;20284;-68
2023/04/14 10:15:11;;;;;;;5.55;2.00;;;11.60;1.00;;;;;;5024452;28;20245;-68
2023/04/14 10:17:38;;;;;;;8.20;1.90;;;11.70;1.00;;;;;;5011308;28;20241;-68
2023/04/14 10:20:06;;;;;;;5.25;1.77;;;11.70;1.00;;;;;;5028298;28;20733;-68
2023/04/14 10:22:33;;;;;;;4.03;1.73;;;11.80;1.00;;;;;;4994645;28;20232;-68
2023/04/14 10:25:00;;;;;;;7.93;2.33;;;11.80;1.00;;;;;;5020893;28;20198;-68
2023/04/14 10:27:28;;;;;;;7.25;1.90;;;11.80;1.00;;;;;;5023392;28;20654;-68
2023/04/14 10:29:56;;;;;;;2.20;1.30;;;11.80;1.00;;;;;;5027192;28;20196;-68
2023/04/14 10:32:28;;;;;;;2.70;1.40;;;11.80;1.00;;;;;;5016299;28;20698;-68
2023/04/14 10:34:59;;;;;;;5.68;1.40;;;11.70;99.90;;;;;;5024522;28;20279;-68
2023/04/14 10:37:27;;;;;;;4.60;1.30;;;11.70;1.00;;;;;;5007438;28;20228;-68
2023/04/14 10:39:58;;;;;;;6.55;1.73;;;11.70;1.00;;;;;;5010801;28;20201;-68
2023/04/14 10:42:25;;;;;;;3.60;1.40;;;11.70;1.00;;;;;;5026563;28;20193;-68
2023/04/14 10:45:07;;;;;;;5.60;1.70;;;11.70;73.90;;;;;;5021770;28;20758;-68
2023/04/14 10:47:40;;;;;;;4.00;1.30;;;11.80;99.90;;;;;;5018184;28;20647;-68
2023/04/14 10:50:12;;;;;;;3.22;1.33;;;11.90;97.00;;;;;;5023291;28;20679;-68
2023/04/14 10:52:48;;;;;;;3.60;1.63;;;11.90;91.30;;;;;;4990499;28;20735;-68
2023/04/14 10:55:15;;;;;;;3.50;1.30;;;12.00;99.90;;;;;;5022485;28;20201;-68
2023/04/14 10:57:43;;;;;;;5.50;1.67;;;12.00;99.90;;;;;;5018827;28;20453;-67
2023/04/14 11:00:27;;;;;;;3.38;1.40;;;12.10;99.90;;;;;;5024527;28;20193;-68
2023/04/14 11:02:57;;;;;;;2.45;1.13;;;12.00;1.00;;;;;;4987830;28;20744;-68
2023/04/14 11:05:25;;;;;;;3.75;1.40;;;12.30;99.90;;;;;;4992056;28;20225;-69
2023/04/14 11:07:56;;;;;;;2.42;1.10;;;12.20;99.90;;;;;;4959269;28;20585;-69
2023/04/14 11:10:33;;;;;;;4.57;1.50;;;12.10;99.90;;;;;;4993146;28;20224;-68
2023/04/14 11:13:04;;;;;;;4.18;1.33;;;12.20;1.00;;;;;;5017268;28;20854;-68
2023/04/14 11:15:45;;;;;;;3.88;0.88;;;12.30;1.00;;;;;;5005444;28;20217;-67
2023/04/14 11:18:15;;;;;;;3.53;1.38;;;12.30;1.00;;;;;;5024432;28;20283;-68
2023/04/14 11:20:42;;;;;;;2.05;0.95;;;12.30;1.00;;;;;;5017639;28;20208;-68
2023/04/14 11:23:11;;;;;;;2.95;1.10;;;12.20;1.00;;;;;;4992142;28;20206;-68
2023/04/14 11:25:39;;;;;;;2.83;1.10;;;12.10;1.00;;;;;;4978760;28;20236;-68
2023/04/14 11:28:06;;;;;;;1.83;0.90;;;12.00;97.10;;;;;;5017186;28;20726;-68
2023/04/14 11:30:33;;;;;;;4.55;1.40;;;12.00;1.00;;;;;;5018150;28;20686;-68
2023/04/14 11:33:00;;;;;;;4.65;1.25;;;12.30;1.00;;;;;;5006569;28;20641;-67
2023/04/14 11:35:30;;;;;;;4.13;1.33;;;12.20;99.90;;;;;;5006374;28;20217;-68
2023/04/14 11:37:58;;;;;;;4.60;1.30;;;12.30;1.00;;;;;;5006911;28;20225;-68
2023/04/14 11:40:26;;;;;;;9.73;2.35;;;12.30;1.00;;;;;;4985909;28;20715;-68
2023/04/14 11:42:55;;;;;;;2.53;1.08;;;12.50;96.00;;;;;;5001657;28;20243;-68
2023/04/14 11:45:26;;;;;;;3.55;1.20;;;12.50;71.30;;;;;;5017895;28;20212;-68
2023/04/14 11:47:57;;;;;;;9.52;1.40;;;12.50;99.90;;;;;;4996385;28;20767;-68
2023/04/14 11:50:25;;;;;;;4.43;1.40;;;12.60;1.00;;;;;;5012953;28;20202;-68
2023/04/14 11:52:56;;;;;;;3.70;1.30;;;12.60;1.00;;;;;;5023946;28;20198;-68
2023/04/14 11:55:23;;;;;;;5.00;1.55;;;12.60;1.00;;;;;;4987089;28;20298;-69
2023/04/14 11:57:50;;;;;;;4.60;1.40;;;12.70;1.00;;;;;;5000017;28;20747;-68
2023/04/14 12:00:18;;;;;;;3.63;1.45;;;12.70;1.00;;;;;;5018944;28;20293;-68
2023/04/14 12:02:45;;;;;;;1.83;1.23;;;12.60;1.00;;;;;;5004051;28;20214;-68
2023/04/14 12:05:13;;;;;;;2.65;1.08;;;12.40;1.00;;;;;;5010896;28;20212;-67
2023/04/14 12:07:43;;;;;;;5.88;1.85;;;12.30;1.00;;;;;;5016660;28;20201;-68
2023/04/14 12:10:12;;;;;;;3.83;1.20;;;12.20;1.00;;;;;;5011018;28;20407;-68
2023/04/14 12:12:39;;;;;;;3.28;1.10;;;12.10;99.90;;;;;;4985704;28;20670;-68
2023/04/14 12:15:08;;;;;;;4.30;1.10;;;12.10;99.90;;;;;;5008577;28;20225;-68
2023/04/14 12:17:35;;;;;;;6.63;1.33;;;12.20;1.00;;;;;;5004395;28;20713;-68
2023/04/14 12:20:02;;;;;;;2.95;1.33;;;12.30;39.50;;;;;;4998333;28;20698;-68
2023/04/14 12:22:30;;;;;;;4.60;1.27;;;12.30;1.00;;;;;;5017802;28;20267;-68
2023/04/14 12:24:57;;;;;;;2.72;1.23;;;12.40;1.00;;;;;;4993405;28;22506;-68
2023/04/14 12:27:26;;;;;;;3.13;1.90;;;12.50;55.00;;;;;;4982207;28;20678;-68
2023/04/14 12:29:53;;;;;;;4.05;1.38;;;12.50;1.00;;;;;;4985485;28;20251;-68
2023/04/14 12:32:21;;;;;;;4.25;1.55;;;12.60;1.00;;;;;;5010885;28;20205;-68
2023/04/14 12:34:56;;;;;;;1.77;1.33;;;12.60;1.00;;;;;;5012346;28;20205;-68
2023/04/14 12:37:27;;;;;;;4.40;1.35;;;12.70;1.00;;;;;;5015305;28;20209;-67
2023/04/14 12:39:58;;;;;;;2.03;1.30;;;12.70;1.00;;;;;;5013781;28;20232;-67
2023/04/14 12:42:26;;;;;;;3.72;1.33;;;12.60;1.00;;;;;;4947207;28;20247;-68
2023/04/14 12:44:57;;;;;;;5.10;1.40;;;12.70;1.00;;;;;;4991439;28;20447;-68
2023/04/14 12:47:29;;;;;;;3.70;1.35;;;12.80;1.00;;;;;;5002248;28;20229;-67
2023/04/14 12:49:56;;;;;;;4.20;1.65;;;13.00;99.90;;;;;;5005713;28;20225;-67
2023/04/14 12:52:37;;;;;;;7.50;2.13;;;13.10;1.00;;;;;;5013091;28;20205;-67
2023/04/14 12:55:04;;;;;;;2.05;1.17;;;13.10;1.00;;;;;;5010447;28;20197;-68
2023/04/14 12:57:33;;;;;;;1.63;1.20;;;13.00;1.00;;;;;;4985082;28;20222;-66
2023/04/14 13:00:00;;;;;;;4.57;1.38;;;12.90;1.00;;;;;;5012091;28;20507;-67
2023/04/14 13:02:28;;;;;;;3.63;1.52;;;12.80;1.00;;;;;;4955251;28;20620;-68